Řízení letového provozu České republiky
Letiste: LKCV Aktualizace: 18.12.2018 17:00:06  UTC
 METAR LKCV 18.12. 17:00 ...
METAR LKCV 181700Z 13006KT 9999 BKN015 02/01 Q1026 NOSIG RMK WHT WHT=
 TAF LKCV 18.12. 11:00 ...
TAF LKCV 181100Z 1812/1912 13005KT 9999 SCT020      TEMPO 1815/1902 7000 BKN020      PROB30 1817/1822 4000 BR OVC014      BECMG 1821/1823 14010KT BKN030=